Time;durP1;ratioP1;P1;durP2;ratioP2;P2;SDS_P1;SDS_P2;PMS_P1;PMS_P2;Temp;Humidity;BMP_temperature;BMP_pressure;BME280_temperature;BME280_humidity;BME280_pressure;Samples;Min_cycle;Max_cycle;Signal;HPM_P1;HPM_P2
2024/02/22 00:01:10;;;;;;;2.17;1.40;;;;;;;8.40;76.85;94705.16;5021069;28;20192;-79
2024/02/22 00:03:35;;;;;;;1.83;1.50;;;;;;;8.83;75.77;94693.00;5004922;28;20287;-80
2024/02/22 00:06:01;;;;;;;1.70;1.47;;;;;;;8.48;77.40;94693.06;5017784;28;20878;-80
2024/02/22 00:08:26;;;;;;;1.93;1.50;;;;;;;8.62;77.02;94683.88;5027779;28;20680;-79
2024/02/22 00:10:51;;;;;;;1.93;1.43;;;;;;;8.61;76.77;94678.88;5004705;28;20202;-79
2024/02/22 00:13:17;;;;;;;1.67;1.50;;;;;;;8.55;77.46;94675.13;5006117;28;20203;-77
2024/02/22 00:15:42;;;;;;;1.90;1.67;;;;;;;8.58;77.47;94674.84;5020802;28;20190;-76
2024/02/22 00:18:07;;;;;;;2.23;1.70;;;;;;;8.60;77.57;94667.72;5017613;28;20190;-77
2024/02/22 00:20:33;;;;;;;2.47;1.70;;;;;;;8.23;79.25;94671.41;5019886;28;20183;-78
2024/02/22 00:23:00;;;;;;;2.10;1.90;;;;;;;8.08;78.90;94666.97;5016177;28;20198;-79
2024/02/22 00:25:25;;;;;;;2.53;1.80;;;;;;;8.36;78.50;94659.84;5021789;28;20601;-79
2024/02/22 00:27:51;;;;;;;5.30;1.80;;;;;;;8.26;78.82;94651.38;5020446;28;20194;-79
2024/02/22 00:30:16;;;;;;;1.90;1.73;;;;;;;8.43;78.91;94640.97;5019051;28;20678;-78
2024/02/22 00:32:42;;;;;;;3.17;1.70;;;;;;;8.27;79.92;94640.88;5025014;28;20218;-79
2024/02/22 00:35:08;;;;;;;3.37;1.73;;;;;;;8.32;80.09;94628.28;5022043;28;20205;-79
2024/02/22 00:37:35;;;;;;;1.70;1.60;;;;;;;8.11;81.50;94628.66;5009457;28;20672;-79
2024/02/22 00:40:04;;;;;;;2.53;1.40;;;;;;;8.13;81.70;94621.59;5019238;28;20198;-79
2024/02/22 00:42:30;;;;;;;3.37;2.03;;;;;;;8.20;82.30;94609.63;5014801;28;20262;-78
2024/02/22 00:44:56;;;;;;;2.37;1.80;;;;;;;8.20;82.50;94601.06;5021090;28;20233;-79
2024/02/22 00:47:21;;;;;;;2.53;2.00;;;;;;;8.03;82.75;94591.63;5005016;28;20214;-79
2024/02/22 00:49:47;;;;;;;2.00;1.80;;;;;;;8.14;83.21;94583.63;5004783;28;20195;-79
2024/02/22 00:52:12;;;;;;;2.87;2.00;;;;;;;8.15;83.33;94575.69;5018946;28;20664;-79
2024/02/22 00:54:37;;;;;;;2.07;1.60;;;;;;;8.17;83.18;94567.78;5021039;28;20208;-78
2024/02/22 00:57:03;;;;;;;2.20;1.63;;;;;;;7.96;84.04;94565.59;5016056;28;20198;-79
2024/02/22 00:59:32;;;;;;;2.77;1.77;;;;;;;8.02;83.84;94562.38;5022031;28;20209;-78
2024/02/22 01:01:57;;;;;;;3.70;1.90;;;;;;;8.29;82.69;94557.94;5019802;28;20183;-79
2024/02/22 01:04:23;;;;;;;2.90;1.70;;;;;;;8.18;82.99;94554.69;5008220;28;20211;-78
2024/02/22 01:06:48;;;;;;;2.77;1.80;;;;;;;8.16;83.26;94546.28;5002289;28;20238;-79
2024/02/22 01:09:15;;;;;;;2.93;1.70;;;;;;;8.13;84.22;94536.25;5021487;28;20187;-79
2024/02/22 01:11:40;;;;;;;1.67;1.43;;;;;;;8.06;84.20;94537.03;5003481;28;20269;-79
2024/02/22 01:14:06;;;;;;;4.10;1.87;;;;;;;8.19;83.66;94532.22;5007072;28;20675;-79
2024/02/22 01:16:31;;;;;;;3.23;1.67;;;;;;;8.05;84.17;94525.09;5022380;28;20195;-78
2024/02/22 01:18:56;;;;;;;2.63;1.70;;;;;;;8.10;83.90;94526.22;5022488;28;20285;-79
2024/02/22 01:21:22;;;;;;;3.30;1.90;;;;;;;8.27;82.92;94515.91;5020812;28;20218;-80
2024/02/22 01:23:47;;;;;;;2.00;1.63;;;;;;;8.04;84.23;94510.50;5006695;28;20210;-78
2024/02/22 01:26:13;;;;;;;3.93;2.00;;;;;;;7.90;85.26;94506.75;5013385;28;20347;-80
2024/02/22 01:28:38;;;;;;;2.10;1.90;;;;;;;7.83;86.10;94505.75;5008258;28;20568;-79
2024/02/22 01:31:03;;;;;;;3.33;2.20;;;;;;;8.04;85.27;94500.16;5016772;28;20664;-79
2024/02/22 01:33:29;;;;;;;3.90;1.80;;;;;;;8.03;85.73;94489.00;5000925;28;20554;-79
2024/02/22 01:35:54;;;;;;;2.63;1.87;;;;;;;8.24;84.68;94484.22;5021834;28;20312;-78
2024/02/22 01:38:19;;;;;;;2.80;1.67;;;;;;;7.81;86.15;94485.25;5020798;28;20194;-79
2024/02/22 01:40:45;;;;;;;2.67;1.90;;;;;;;7.92;86.53;94477.19;5004358;28;20627;-79
2024/02/22 01:43:10;;;;;;;1.90;1.80;;;;;;;7.95;86.81;94468.31;5000473;28;20324;-79
2024/02/22 01:45:36;;;;;;;1.73;1.57;;;;;;;7.96;87.11;94459.63;5023524;28;20194;-78
2024/02/22 01:48:02;;;;;;;2.43;1.90;;;;;;;7.93;87.80;94450.38;5016290;28;20199;-79
2024/02/22 01:50:28;;;;;;;2.03;1.67;;;;;;;8.17;86.57;94451.41;5019973;28;20187;-78
2024/02/22 01:52:54;;;;;;;1.50;1.40;;;;;;;8.17;86.92;94444.44;5008865;28;20199;-78
2024/02/22 01:55:20;;;;;;;1.83;1.50;;;;;;;8.19;86.79;94446.88;5019805;28;20202;-79
2024/02/22 01:57:45;;;;;;;2.33;1.40;;;;;;;8.05;87.74;94432.81;5021092;28;20190;-78
2024/02/22 02:00:15;;;;;;;2.03;1.60;;;;;;;8.28;86.61;94429.59;5019269;28;20274;-79
2024/02/22 02:02:42;;;;;;;1.47;1.37;;;;;;;7.98;88.37;94433.59;5019948;28;20216;-78
2024/02/22 02:05:07;;;;;;;1.97;1.40;;;;;;;8.04;87.92;94426.03;5018180;28;20183;-79
2024/02/22 02:07:35;;;;;;;1.57;1.30;;;;;;;8.09;88.31;94428.13;5005358;28;20270;-79
2024/02/22 02:10:01;;;;;;;2.20;1.40;;;;;;;8.03;88.86;94426.16;5013136;28;20195;-78
2024/02/22 02:12:27;;;;;;;1.57;1.47;;;;;;;7.98;88.73;94418.88;5019117;28;20214;-79
2024/02/22 02:14:55;;;;;;;1.40;1.20;;;;;;;8.15;88.45;94425.72;5006445;28;20207;-78
2024/02/22 02:17:20;;;;;;;1.57;1.40;;;;;;;7.90;89.82;94411.13;5019480;28;20651;-78
2024/02/22 02:19:46;;;;;;;3.20;1.30;;;;;;;8.02;89.88;94415.00;5020046;28;20263;-78
2024/02/22 02:22:35;;;;;;;2.87;1.30;;;;;;;8.09;90.04;94408.25;5019785;28;20178;-78
2024/02/22 02:25:01;;;;;;;1.20;1.10;;;;;;;8.08;89.69;94404.03;5032414;28;20277;-78
2024/02/22 02:27:27;;;;;;;2.73;1.17;;;;;;;8.23;89.10;94411.97;5017653;28;20184;-78
2024/02/22 02:29:52;;;;;;;1.57;1.23;;;;;;;8.21;89.71;94406.94;5002781;28;20244;-78
2024/02/22 02:32:17;;;;;;;1.27;1.10;;;;;;;8.40;88.72;94405.06;5015230;28;20231;-79
2024/02/22 02:34:43;;;;;;;1.00;0.90;;;;;;;8.19;89.77;94401.13;5010858;28;20214;-78
2024/02/22 02:37:08;;;;;;;0.90;0.90;;;;;;;8.23;89.80;94391.28;5018294;28;20194;-78
2024/02/22 02:39:33;;;;;;;1.10;0.90;;;;;;;8.24;90.05;94391.13;5009063;28;20203;-78
2024/02/22 02:41:59;;;;;;;0.70;0.70;;;;;;;8.20;89.52;94379.47;5016566;28;20187;-79
2024/02/22 02:44:24;;;;;;;1.37;0.83;;;;;;;8.17;90.05;94376.41;5022791;28;20222;-79
2024/02/22 02:46:50;;;;;;;1.33;0.80;;;;;;;8.34;89.72;94379.81;5001533;28;20194;-79
2024/02/22 02:49:15;;;;;;;0.77;0.77;;;;;;;8.23;91.06;94374.00;5010033;28;20238;-80
2024/02/22 02:51:41;;;;;;;0.80;0.80;;;;;;;8.24;90.47;94364.44;5020479;28;20251;-79
2024/02/22 02:54:06;;;;;;;1.40;0.77;;;;;;;8.08;91.83;94365.25;5005944;28;20210;-79
2024/02/22 02:56:32;;;;;;;1.47;0.80;;;;;;;8.03;91.42;94366.69;5021581;28;20556;-79
2024/02/22 02:58:58;;;;;;;1.17;0.97;;;;;;;8.08;91.78;94357.50;5019244;28;20181;-79
2024/02/22 03:01:23;;;;;;;0.77;0.63;;;;;;;8.07;92.14;94352.50;5020816;28;20187;-79
2024/02/22 03:03:49;;;;;;;0.60;0.60;;;;;;;8.14;91.39;94346.53;5006074;28;20302;-79
2024/02/22 03:06:14;;;;;;;1.50;0.80;;;;;;;8.32;91.13;94341.19;5017885;28;20209;-79
2024/02/22 03:08:40;;;;;;;1.47;0.70;;;;;;;8.47;90.10;94329.19;5008235;28;20251;-77
2024/02/22 03:11:05;;;;;;;0.93;0.70;;;;;;;8.42;90.62;94330.69;5015956;28;20203;-79
2024/02/22 03:13:31;;;;;;;0.63;0.63;;;;;;;8.27;91.08;94327.09;5005137;28;20215;-79
2024/02/22 03:15:56;;;;;;;1.30;0.70;;;;;;;8.24;91.18;94326.47;5018571;28;20197;-79
2024/02/22 03:18:21;;;;;;;0.60;0.60;;;;;;;8.34;90.92;94320.31;5014914;28;20183;-77
2024/02/22 03:20:46;;;;;;;0.50;0.50;;;;;;;8.27;91.10;94317.56;5016078;28;20217;-76
2024/02/22 03:23:12;;;;;;;0.57;0.50;;;;;;;8.40;90.50;94319.69;5017976;28;20211;-77
2024/02/22 03:25:37;;;;;;;0.53;0.50;;;;;;;8.24;90.29;94304.97;5007957;28;20298;-79
2024/02/22 03:28:06;;;;;;;0.50;0.50;;;;;;;8.31;90.86;94299.97;5025858;28;20190;-77
2024/02/22 03:30:33;;;;;;;0.57;0.53;;;;;;;8.42;89.54;94303.03;5019330;28;20186;-79
2024/02/22 03:32:58;;;;;;;0.40;0.40;;;;;;;8.42;90.77;94286.69;5011037;28;20576;-79
2024/02/22 03:35:23;;;;;;;0.47;0.47;;;;;;;8.09;92.24;94286.72;5018947;28;20183;-79
2024/02/22 03:37:49;;;;;;;0.50;0.50;;;;;;;8.28;90.93;94282.16;5019277;28;20186;-79
2024/02/22 03:40:15;;;;;;;0.50;0.50;;;;;;;8.10;92.40;94284.94;5000876;28;20199;-79
2024/02/22 03:42:40;;;;;;;0.57;0.57;;;;;;;8.28;92.07;94282.16;5018076;28;20610;-79
2024/02/22 03:45:06;;;;;;;0.80;0.60;;;;;;;8.40;91.88;94273.13;5019023;28;20293;-79
2024/02/22 03:47:31;;;;;;;0.40;0.40;;;;;;;8.47;91.35;94274.06;5021522;28;20272;-79
2024/02/22 03:49:57;;;;;;;0.50;0.40;;;;;;;8.54;90.86;94266.44;5025152;28;20197;-79
2024/02/22 03:52:23;;;;;;;0.40;0.40;;;;;;;8.58;90.80;94271.16;5019595;28;20307;-79
2024/02/22 03:54:49;;;;;;;0.50;0.50;;;;;;;8.42;90.80;94273.78;5020028;28;20198;-79
2024/02/22 03:57:14;;;;;;;0.30;0.30;;;;;;;8.37;91.85;94276.03;5013904;28;20183;-79
2024/02/22 03:59:40;;;;;;;0.50;0.50;;;;;;;8.54;90.58;94271.63;5018104;28;20193;-79
2024/02/22 04:02:05;;;;;;;0.60;0.50;;;;;;;8.45;91.24;94263.09;5000474;28;20205;-77
2024/02/22 04:04:30;;;;;;;0.30;0.30;;;;;;;8.31;92.10;94276.69;5017354;28;20202;-77
2024/02/22 04:06:56;;;;;;;1.13;0.47;;;;;;;8.39;91.90;94267.16;5016483;28;20217;-79
2024/02/22 04:09:21;;;;;;;0.40;0.40;;;;;;;8.25;92.53;94265.19;5003529;28;20198;-79
2024/02/22 04:11:47;;;;;;;0.40;0.40;;;;;;;8.36;91.29;94261.50;5002262;28;20293;-79
2024/02/22 04:14:12;;;;;;;0.73;0.53;;;;;;;8.30;91.65;94256.94;5018525;28;20651;-79
2024/02/22 04:16:38;;;;;;;0.50;0.50;;;;;;;8.43;91.28;94257.28;5019445;28;20609;-79
2024/02/22 04:19:03;;;;;;;0.50;0.47;;;;;;;8.39;91.50;94250.81;5019034;28;20187;-78
2024/02/22 04:21:28;;;;;;;0.47;0.47;;;;;;;8.12;92.47;94244.19;5019108;28;20190;-79
2024/02/22 04:23:54;;;;;;;0.40;0.40;;;;;;;8.55;90.27;94237.00;5017324;28;20199;-78
2024/02/22 04:26:19;;;;;;;0.43;0.43;;;;;;;8.46;91.39;94251.75;5018433;28;20268;-78
2024/02/22 04:28:44;;;;;;;0.50;0.50;;;;;;;8.37;92.19;94232.88;5007061;28;20221;-78
2024/02/22 04:31:10;;;;;;;0.43;0.43;;;;;;;8.51;90.47;94232.19;5021935;28;20616;-79
2024/02/22 04:33:35;;;;;;;0.43;0.40;;;;;;;8.33;91.19;94228.16;5023693;28;20770;-79
2024/02/22 04:36:05;;;;;;;0.40;0.40;;;;;;;8.43;91.52;94226.22;5022866;28;20214;-78
2024/02/22 04:38:30;;;;;;;0.40;0.40;;;;;;;8.44;91.34;94217.50;5026045;28;20190;-79
2024/02/22 04:40:55;;;;;;;0.97;0.50;;;;;;;8.50;90.92;94216.84;5006684;28;20579;-79
2024/02/22 04:43:22;;;;;;;0.40;0.40;;;;;;;8.54;91.21;94220.69;5020135;28;20306;-79
2024/02/22 04:45:47;;;;;;;0.60;0.60;;;;;;;8.43;91.07;94211.50;5021726;28;20213;-79
2024/02/22 04:48:12;;;;;;;1.00;0.30;;;;;;;8.28;92.25;94207.16;5022816;28;20596;-79
2024/02/22 04:50:38;;;;;;;0.40;0.40;;;;;;;8.38;92.17;94202.63;5006326;28;20215;-79
2024/02/22 04:53:04;;;;;;;0.67;0.47;;;;;;;8.38;92.59;94205.22;5014624;28;20205;-79
2024/02/22 04:55:30;;;;;;;0.50;0.50;;;;;;;8.44;92.65;94207.94;5007439;28;20248;-79
2024/02/22 04:57:55;;;;;;;0.50;0.50;;;;;;;8.35;93.31;94214.13;5001344;28;20530;-79
2024/02/22 05:00:21;;;;;;;0.40;0.40;;;;;;;8.49;93.00;94202.28;5024776;28;20175;-78
2024/02/22 05:02:47;;;;;;;0.40;0.40;;;;;;;8.60;92.67;94199.31;5006638;28;20179;-76
2024/02/22 05:05:12;;;;;;;0.47;0.47;;;;;;;8.73;92.03;94196.19;5022567;28;20190;-76
2024/02/22 05:07:37;;;;;;;0.87;0.50;;;;;;;8.51;92.20;94188.19;5001344;28;20731;-77
2024/02/22 05:10:03;;;;;;;0.40;0.40;;;;;;;8.68;91.73;94182.97;5023901;28;20198;-77
2024/02/22 05:12:29;;;;;;;0.60;0.60;;;;;;;8.74;91.85;94187.44;5020720;28;20222;-77
2024/02/22 05:14:54;;;;;;;0.40;0.30;;;;;;;8.63;92.29;94180.88;5020199;28;20198;-77
2024/02/22 05:17:21;;;;;;;0.83;0.50;;;;;;;8.61;92.54;94187.19;5020318;28;20188;-77
2024/02/22 05:19:47;;;;;;;0.20;0.20;;;;;;;8.47;93.71;94175.75;5022367;28;20179;-77
2024/02/22 05:22:13;;;;;;;0.67;0.60;;;;;;;8.58;93.15;94165.06;5025278;28;20229;-78
2024/02/22 05:24:38;;;;;;;0.53;0.40;;;;;;;8.66;92.91;94161.63;5023229;28;20199;-77
2024/02/22 05:27:04;;;;;;;0.60;0.53;;;;;;;8.75;92.51;94158.03;5010908;28;20174;-77
2024/02/22 05:29:30;;;;;;;0.40;0.37;;;;;;;8.55;93.23;94156.81;4992572;28;20176;-76
2024/02/22 05:31:56;;;;;;;0.60;0.60;;;;;;;8.79;92.53;94154.91;4999145;28;20795;-76
2024/02/22 05:34:21;;;;;;;0.90;0.90;;;;;;;8.54;93.61;94150.03;5017507;28;20203;-77
2024/02/22 05:36:47;;;;;;;0.77;0.70;;;;;;;8.56;93.73;94148.88;5019720;28;20637;-77
2024/02/22 05:39:12;;;;;;;1.03;0.50;;;;;;;8.74;93.36;94138.25;5034187;28;20210;-76
2024/02/22 05:41:38;;;;;;;1.50;0.50;;;;;;;8.45;94.69;94131.94;5020621;28;20245;-77
2024/02/22 05:44:04;;;;;;;1.07;0.50;;;;;;;8.50;94.41;94128.88;5023671;28;20203;-76
2024/02/22 05:46:29;;;;;;;0.60;0.53;;;;;;;8.58;94.45;94134.00;5017139;28;20183;-77
2024/02/22 05:48:55;;;;;;;0.40;0.40;;;;;;;8.37;95.23;94120.84;5017141;28;20225;-77
2024/02/22 05:51:20;;;;;;;0.77;0.73;;;;;;;8.51;95.06;94133.06;5009279;28;20210;-77
2024/02/22 05:53:45;;;;;;;0.53;0.40;;;;;;;8.59;95.03;94125.25;5022049;28;20207;-77
2024/02/22 05:56:11;;;;;;;0.50;0.50;;;;;;;8.86;93.31;94118.00;5024299;28;20194;-77
2024/02/22 05:58:36;;;;;;;0.40;0.40;;;;;;;8.54;95.08;94121.56;5018528;28;20609;-78
2024/02/22 06:01:01;;;;;;;0.60;0.50;;;;;;;8.58;95.64;94115.09;5019371;28;20548;-76
2024/02/22 06:03:27;;;;;;;0.60;0.60;;;;;;;8.58;94.50;94113.31;5015084;28;20718;-78
2024/02/22 06:05:53;;;;;;;0.60;0.57;;;;;;;8.66;94.45;94107.28;5005827;28;20543;-76
2024/02/22 06:08:18;;;;;;;1.47;0.70;;;;;;;8.69;94.65;94107.72;5023641;28;20578;-76
2024/02/22 06:10:44;;;;;;;0.60;0.30;;;;;;;8.58;95.02;94110.72;5026804;28;20222;-77
2024/02/22 06:13:09;;;;;;;0.30;0.30;;;;;;;8.47;94.97;94101.53;4999984;28;20214;-77
2024/02/22 06:15:35;;;;;;;0.43;0.43;;;;;;;8.79;93.65;94102.34;5016778;28;20193;-77
2024/02/22 06:18:00;;;;;;;0.40;0.40;;;;;;;8.69;94.56;94107.72;5016171;28;20183;-76
2024/02/22 06:20:25;;;;;;;0.50;0.50;;;;;;;8.62;95.04;94106.00;5019107;28;20183;-78
2024/02/22 06:22:52;;;;;;;0.40;0.40;;;;;;;8.63;95.17;94105.81;5018628;28;20214;-78
2024/02/22 06:25:17;;;;;;;0.47;0.43;;;;;;;8.55;94.49;94100.69;5019248;28;20188;-79
2024/02/22 06:27:43;;;;;;;1.53;0.40;;;;;;;8.49;95.01;94102.19;5016012;28;20205;-77
2024/02/22 06:30:09;;;;;;;0.23;0.23;;;;;;;8.61;94.70;94096.63;5018181;28;20599;-77
2024/02/22 06:32:35;;;;;;;0.40;0.40;;;;;;;8.71;94.64;94098.00;5008972;28;20684;-78
2024/02/22 06:35:00;;;;;;;1.50;0.60;;;;;;;8.91;93.55;94089.78;5020348;28;20264;-79
2024/02/22 06:37:26;;;;;;;0.50;0.50;;;;;;;8.94;94.26;94089.47;5010564;28;20679;-77
2024/02/22 06:39:51;;;;;;;0.40;0.40;;;;;;;8.76;94.73;94077.59;5017789;28;20206;-78
2024/02/22 06:42:17;;;;;;;0.30;0.30;;;;;;;8.67;95.45;94083.81;5015436;28;20187;-78
2024/02/22 06:44:44;;;;;;;0.80;0.60;;;;;;;8.79;95.38;94086.81;5017852;28;20554;-78
2024/02/22 06:47:09;;;;;;;0.67;0.40;;;;;;;8.83;95.37;94077.69;5019168;28;20255;-77
2024/02/22 06:49:34;;;;;;;0.50;0.50;;;;;;;8.73;95.48;94077.13;5018406;28;20237;-77
2024/02/22 06:52:00;;;;;;;0.50;0.50;;;;;;;8.79;95.71;94074.66;5015763;28;20234;-78
2024/02/22 06:54:25;;;;;;;0.50;0.50;;;;;;;8.87;95.24;94073.00;5019567;28;20215;-78
2024/02/22 06:56:51;;;;;;;0.50;0.50;;;;;;;8.88;95.67;94069.44;5020007;28;20213;-78
2024/02/22 06:59:16;;;;;;;0.40;0.40;;;;;;;8.96;95.13;94069.38;5016786;28;20187;-78
2024/02/22 07:01:42;;;;;;;1.53;0.43;;;;;;;8.74;95.98;94076.16;5018562;28;20577;-78
2024/02/22 07:04:09;;;;;;;0.50;0.50;;;;;;;8.99;95.15;94067.22;5014136;28;20731;-77
2024/02/22 07:06:35;;;;;;;0.40;0.40;;;;;;;9.03;94.94;94065.13;5003680;28;20664;-77
2024/02/22 07:09:02;;;;;;;0.63;0.43;;;;;;;8.85;95.71;94073.19;4996884;28;20201;-78
2024/02/22 07:11:27;;;;;;;1.53;0.50;;;;;;;9.09;94.90;94067.78;5018831;28;20195;-78
2024/02/22 07:13:52;;;;;;;1.40;0.47;;;;;;;9.15;94.09;94061.13;5015547;28;20253;-76
2024/02/22 07:16:18;;;;;;;0.50;0.50;;;;;;;8.90;95.45;94055.34;5000442;28;20206;-77
2024/02/22 07:18:43;;;;;;;0.50;0.50;;;;;;;8.90;95.82;94067.47;5004769;28;20243;-78
2024/02/22 07:21:08;;;;;;;0.50;0.40;;;;;;;8.87;96.00;94071.22;5018091;28;20663;-77
2024/02/22 07:23:34;;;;;;;0.50;0.50;;;;;;;9.17;94.79;94059.16;5017036;28;20214;-77
2024/02/22 07:26:00;;;;;;;0.60;0.50;;;;;;;9.09;94.62;94056.63;5017987;28;20644;-77
2024/02/22 07:28:25;;;;;;;0.30;0.30;;;;;;;9.03;94.58;94049.59;5016986;28;20209;-78
2024/02/22 07:30:51;;;;;;;1.23;0.30;;;;;;;9.12;95.18;94056.31;5016814;28;20242;-76
2024/02/22 07:33:17;;;;;;;0.40;0.40;;;;;;;9.08;95.38;94052.44;5016665;28;20214;-77
2024/02/22 07:35:42;;;;;;;0.50;0.50;;;;;;;9.05;95.79;94051.00;5021646;28;20213;-77
2024/02/22 07:38:08;;;;;;;0.50;0.50;;;;;;;9.14;95.37;94043.19;5018915;28;20210;-77
2024/02/22 07:40:33;;;;;;;1.50;0.93;;;;;;;9.15;95.11;94040.41;5008872;28;20281;-77
2024/02/22 07:42:59;;;;;;;1.63;0.90;;;;;;;9.33;94.33;94042.66;5020482;28;20203;-78
2024/02/22 07:45:28;;;;;;;0.47;0.40;;;;;;;9.48;93.88;94034.94;5019176;28;20653;-78
2024/02/22 07:47:56;;;;;;;0.53;0.53;;;;;;;9.35;94.05;94031.13;5018377;28;20182;-77
2024/02/22 07:50:22;;;;;;;0.43;0.40;;;;;;;9.28;94.77;94034.63;5010518;28;20191;-77
2024/02/22 07:52:48;;;;;;;0.80;0.50;;;;;;;9.22;94.47;94022.38;5016685;28;20210;-78
2024/02/22 07:55:14;;;;;;;0.60;0.60;;;;;;;9.26;95.59;94031.41;5018463;28;20194;-76
2024/02/22 07:57:39;;;;;;;0.40;0.40;;;;;;;9.50;93.88;94031.16;5016130;28;20191;-77
2024/02/22 08:00:07;;;;;;;0.40;0.40;;;;;;;9.34;95.12;94018.38;5013817;28;20197;-78
2024/02/22 08:02:33;;;;;;;0.57;0.50;;;;;;;9.25;94.93;94033.19;5019393;28;20548;-78
2024/02/22 08:04:58;;;;;;;0.57;0.43;;;;;;;9.50;94.53;94022.59;5020506;28;20218;-78
2024/02/22 08:07:24;;;;;;;0.20;0.20;;;;;;;9.44;94.79;94015.50;5001503;28;20628;-78
2024/02/22 08:09:49;;;;;;;1.90;0.50;;;;;;;9.54;94.12;94019.47;5011609;28;20274;-77
2024/02/22 08:12:15;;;;;;;0.40;0.40;;;;;;;9.65;93.90;94010.44;5006673;28;20298;-78
2024/02/22 08:14:41;;;;;;;0.90;0.40;;;;;;;9.38;94.65;94009.28;5016251;28;20749;-78
2024/02/22 08:17:06;;;;;;;0.73;0.40;;;;;;;9.51;94.66;94008.66;5019555;28;20183;-78
2024/02/22 08:19:31;;;;;;;0.30;0.30;;;;;;;9.57;94.46;94013.13;5017980;28;20183;-77
2024/02/22 08:21:57;;;;;;;0.47;0.47;;;;;;;9.63;94.30;94008.03;5021169;28;20182;-78
2024/02/22 08:24:22;;;;;;;0.33;0.33;;;;;;;9.24;95.42;94002.28;5023579;28;20301;-79
2024/02/22 08:26:48;;;;;;;1.70;0.33;;;;;;;9.65;94.15;93995.69;5023771;28;20187;-77
2024/02/22 08:29:13;;;;;;;0.40;0.40;;;;;;;9.79;93.06;93991.47;5008896;28;20174;-78
2024/02/22 08:31:39;;;;;;;2.50;2.10;;;;;;;9.73;92.84;93994.81;5019958;28;20250;-77
2024/02/22 08:34:05;;;;;;;0.50;0.50;;;;;;;9.85;92.78;93992.53;5030169;28;20305;-78
2024/02/22 08:36:31;;;;;;;1.27;0.90;;;;;;;9.91;93.09;93994.44;5020178;28;20210;-78
2024/02/22 08:38:58;;;;;;;1.00;1.00;;;;;;;9.59;94.61;93993.00;5019532;28;20917;-77
2024/02/22 08:41:24;;;;;;;0.47;0.47;;;;;;;9.77;93.49;94000.41;5014920;28;20776;-78
2024/02/22 08:43:49;;;;;;;0.40;0.40;;;;;;;9.60;93.90;93992.03;5022511;28;20280;-78
2024/02/22 08:46:14;;;;;;;0.20;0.20;;;;;;;9.68;94.54;93984.16;5026074;28;20190;-77
2024/02/22 08:48:40;;;;;;;0.40;0.30;;;;;;;9.56;93.79;93990.78;5001990;28;20194;-78
2024/02/22 08:51:09;;;;;;;0.30;0.30;;;;;;;10.07;92.52;93977.84;5021065;28;20218;-78
2024/02/22 08:53:35;;;;;;;1.33;0.27;;;;;;;9.88;93.43;93980.00;5018081;28;20206;-77
2024/02/22 08:56:00;;;;;;;0.30;0.30;;;;;;;9.98;92.90;93971.94;5021964;28;20233;-78
2024/02/22 08:58:25;;;;;;;0.10;0.10;;;;;;;9.73;93.45;93970.69;5028748;28;20242;-79
2024/02/22 09:00:51;;;;;;;0.30;0.30;;;;;;;9.98;92.49;93969.34;5016121;28;20198;-79
2024/02/22 09:03:16;;;;;;;0.27;0.27;;;;;;;9.95;93.15;93959.34;5019281;28;20621;-78
2024/02/22 09:05:43;;;;;;;0.30;0.30;;;;;;;10.02;91.71;93962.03;5010679;28;20183;-78
2024/02/22 09:08:09;;;;;;;0.40;0.40;;;;;;;10.05;91.76;93956.47;4999489;28;20628;-78
2024/02/22 09:10:34;;;;;;;0.30;0.30;;;;;;;9.76;92.22;93952.16;5023178;28;20187;-78
2024/02/22 09:12:59;;;;;;;0.40;0.40;;;;;;;9.90;92.17;93953.94;5001641;28;20245;-78
2024/02/22 09:15:25;;;;;;;0.30;0.30;;;;;;;10.01;92.03;93950.06;5009997;28;20274;-77
2024/02/22 09:17:50;;;;;;;0.30;0.20;;;;;;;9.96;92.09;93944.59;5019494;28;20190;-78
2024/02/22 09:20:18;;;;;;;0.40;0.40;;;;;;;10.11;91.57;93940.19;5006599;28;20194;-77
2024/02/22 09:22:43;;;;;;;1.07;0.40;;;;;;;10.03;92.45;93930.72;5020066;28;20182;-78
2024/02/22 09:25:09;;;;;;;0.43;0.43;;;;;;;10.27;91.17;93911.44;5023879;28;20202;-79
2024/02/22 09:27:36;;;;;;;0.30;0.30;;;;;;;10.39;91.30;93922.94;5007199;28;20191;-78
2024/02/22 09:30:03;;;;;;;1.67;0.80;;;;;;;10.55;90.40;93923.66;5009206;28;20187;-77
2024/02/22 09:32:29;;;;;;;0.30;0.30;;;;;;;10.14;92.61;93921.66;5001039;28;20821;-78
2024/02/22 09:34:55;;;;;;;0.40;0.40;;;;;;;10.08;92.74;93917.22;5019783;28;20340;-78
2024/02/22 09:37:20;;;;;;;0.30;0.30;;;;;;;10.45;91.37;93937.75;5019398;28;20203;-78
2024/02/22 09:39:47;;;;;;;0.43;0.30;;;;;;;10.34;91.69;93937.47;5004449;28;20187;-77
2024/02/22 09:42:13;;;;;;;1.63;0.30;;;;;;;10.36;91.80;93925.09;5004906;28;20233;-78
2024/02/22 09:44:39;;;;;;;0.37;0.30;;;;;;;10.45;91.07;93926.59;5019982;28;20305;-78
2024/02/22 09:47:04;;;;;;;0.40;0.40;;;;;;;10.52;91.13;93929.25;5017925;28;20726;-78
2024/02/22 09:49:30;;;;;;;0.40;0.40;;;;;;;10.43;90.14;93916.41;5021410;28;20232;-77
2024/02/22 09:51:56;;;;;;;0.30;0.30;;;;;;;10.56;90.07;93905.31;5011605;28;20743;-78
2024/02/22 09:54:23;;;;;;;0.60;0.30;;;;;;;10.24;91.97;93901.41;5008789;28;20218;-79
2024/02/22 09:56:50;;;;;;;0.40;0.40;;;;;;;10.57;90.05;93900.91;5009813;28;20214;-78
2024/02/22 09:59:19;;;;;;;0.27;0.27;;;;;;;10.54;90.14;93893.53;5007765;28;20183;-77
2024/02/22 10:01:44;;;;;;;0.30;0.23;;;;;;;10.87;88.90;93902.38;5023266;28;20198;-77
2024/02/22 10:04:11;;;;;;;3.30;0.50;;;;;;;10.57;90.33;93882.75;5020297;28;20213;-78
2024/02/22 10:06:37;;;;;;;0.40;0.40;;;;;;;10.36;90.66;93896.56;5007184;28;20195;-79
2024/02/22 10:09:04;;;;;;;1.03;0.40;;;;;;;10.61;90.03;93890.00;5023417;28;20590;-80
2024/02/22 10:11:32;;;;;;;0.37;0.30;;;;;;;10.61;88.90;93876.22;5023398;28;20346;-76
2024/02/22 10:14:04;;;;;;;0.73;0.20;;;;;;;10.42;90.36;93882.81;5031438;28;20222;-78
2024/02/22 10:16:30;;;;;;;0.30;0.30;;;;;;;10.33;90.52;93878.75;5019986;28;20199;-79
2024/02/22 10:19:00;;;;;;;0.20;0.20;;;;;;;10.15;90.35;93879.16;5022180;28;20198;-78
2024/02/22 10:21:27;;;;;;;0.30;0.30;;;;;;;10.37;89.75;93880.00;5021537;28;20623;-78
2024/02/22 10:23:54;;;;;;;0.27;0.27;;;;;;;10.46;89.90;93869.31;5022377;28;20579;-79
2024/02/22 10:26:19;;;;;;;0.30;0.30;;;;;;;10.69;88.63;93871.69;5020361;28;20191;-77
2024/02/22 10:28:53;;;;;;;0.33;0.33;;;;;;;10.80;89.01;93870.34;5026381;28;20191;-78
2024/02/22 10:31:22;;;;;;;0.30;0.30;;;;;;;10.75;88.59;93870.09;5022100;28;20206;-78
2024/02/22 10:33:48;;;;;;;0.30;0.30;;;;;;;10.79;89.35;93863.56;5021594;28;20298;-78
2024/02/22 10:36:14;;;;;;;0.27;0.27;;;;;;;10.76;89.09;93853.53;5005980;28;20272;-78
2024/02/22 10:38:40;;;;;;;0.33;0.33;;;;;;;10.75;88.97;93847.53;5010911;28;20190;-78
2024/02/22 10:41:11;;;;;;;0.27;0.27;;;;;;;10.66;89.84;93842.69;5006578;28;20198;-77
2024/02/22 10:43:41;;;;;;;0.47;0.30;;;;;;;10.73;89.14;93838.34;5019421;28;20295;-77
2024/02/22 10:46:08;;;;;;;0.33;0.33;;;;;;;10.67;89.56;93823.50;5007598;28;20191;-77
2024/02/22 10:48:36;;;;;;;0.40;0.33;;;;;;;10.61;88.82;93824.28;5020587;28;20599;-78
2024/02/22 10:51:05;;;;;;;1.20;0.30;;;;;;;10.69;89.62;93813.75;5008100;28;20198;-78
2024/02/22 10:53:36;;;;;;;0.40;0.40;;;;;;;10.91;89.18;93806.69;5017805;28;20214;-77
2024/02/22 10:56:01;;;;;;;0.30;0.30;;;;;;;10.50;90.60;93823.81;5024416;28;20612;-78
2024/02/22 10:58:27;;;;;;;0.50;0.50;;;;;;;10.91;89.48;93828.25;5009014;28;20194;-78
2024/02/22 11:00:53;;;;;;;0.37;0.37;;;;;;;11.02;88.96;93819.94;5020902;28;20560;-78
2024/02/22 11:03:21;;;;;;;0.30;0.30;;;;;;;10.73;90.60;93817.56;5005320;28;20215;-77
2024/02/22 11:05:47;;;;;;;0.37;0.37;;;;;;;10.51;90.71;93809.03;5008877;28;20194;-78
2024/02/22 11:08:23;;;;;;;0.33;0.33;;;;;;;10.75;90.20;93800.81;5020491;28;20193;-78
2024/02/22 11:11:06;;;;;;;0.60;0.60;;;;;;;10.66;90.73;93785.56;5010120;28;20652;-78
2024/02/22 11:13:32;;;;;;;0.30;0.30;;;;;;;10.51;90.75;93785.66;5022109;28;20703;-78
2024/02/22 11:15:57;;;;;;;2.43;0.70;;;;;;;10.54;90.48;93776.72;5005177;28;20201;-78
2024/02/22 11:18:24;;;;;;;0.83;0.83;;;;;;;10.46;91.11;93765.50;5017448;28;20184;-78
2024/02/22 11:20:49;;;;;;;1.30;1.07;;;;;;;10.56;90.71;93761.75;5021323;28;20202;-77
2024/02/22 11:23:15;;;;;;;0.60;0.60;;;;;;;10.41;89.68;93747.09;5009131;28;20206;-77
2024/02/22 11:25:41;;;;;;;0.77;0.40;;;;;;;10.53;90.65;93733.59;5020764;28;20265;-77
2024/02/22 11:28:08;;;;;;;1.20;0.80;;;;;;;10.27;91.27;93737.63;5020590;28;20543;-77
2024/02/22 11:30:33;;;;;;;1.13;0.70;;;;;;;10.51;90.89;93738.97;5005058;28;20224;-77
2024/02/22 11:32:59;;;;;;;1.23;0.70;;;;;;;10.54;91.08;93722.22;5008951;28;20630;-77